Racecast

Grant Chesin

Elk Grove (CA) · 10 · DELTACA D2SJS D3 · Compare head to head

Athlete ratingi 99.7 2012 XC season
Best race 112.5 XC
Races 32
Seasons 3 2010 — 2012

RankedNation #87506·CA #10547·CA D2 #4670·SJS #1561·SJS D3 #507·DELTA #116·Team #32 ?

Rating scale ?
Speed rating — all races

Cross Country

XC speed rating

2012 XC 95.8

Elk Grove (CA) · Grade 10

Date Meet Event Result Place Ratingi Difficultyi PR/SR Flags
2012-10-13 Willow Hills Reservoir Course 3400m 14:35.3 96th · 2nd on team 97.3 +2.7% ★PR ★CR SR CSR
2012-10-04 Granite Park 3540m 14:57.8 31st · 7th on team 94.6 -1.7%
2012-09-15 American Legion Park 3218m 13:20 17th · 7th on team 99.7 +2.2% ★CR CSR
2012-09-11 Granite Park 3540m 14:04 8th · 5th on team 101.3 -1.7% ★PR ★CR SR CSR RSR
2012-09-08 Granite Park 3218m 14:46.3 109th · 6th on team 85.4 -2.9% ★CR CSR
2012-08-29 Lodi Lake 3218m 13:00 45th · 1st on team 96.5 -3.7% ★PR ★CR SR CSR RSR

2011 XC 92.0

Elk Grove (CA) · Grade 9

Date Meet Event Result Place Ratingi Difficultyi PR/SR Flags
2011-11-05 Calaveras County Fairgrounds 3218m 14:35 56th · 1st on team 94.9 +6.7% ★CR CSR
2011-10-29 Willow Hills Reservoir Course 3400m 14:51 36th · 3rd on team 96.1 +2.7% PR CR SR CSR
2011-10-22 Mt. San Antonio College 4715m 22:53 114th · 1st on team 92.7 +5.6% ★PR ★CR SR CSR
2011-10-08 Granite Park 3540m 15:16 79th · 4th on team 93.5 -1.7% PR CR SR CSR
2011-10-04 Granite Park 3218m 15:50 4th · 4th on team 78.6 -2.9% CR CSR
2011-09-14 Elk Grove Regional Park 3000m 27:23 21st · 5th on team +0.5% ★PR ★CR SR CSR
2011-09-10 Rosemont HS 3540m 16:05.5 68th · 5th on team 89.3 -1.0% PR ★CR SR CSR
2011-09-03 Lagoon Valley Park 3218m 15:30.6 54th · 1st on team 92.9 +10.3% ★CR CSR
2011-08-31 Lodi Lake 3138m 13:48 88th · 7th on team 90.1 -1.9% ★PR ★CR SR CSR
2011-08-26 Elk Grove Regional Park 3218m 13:12 17th · 15th on team 99.7 +0.9% PR ★CR SR CSR RSR

2010 XC 108.8

Joseph Kerr (CA) · Grade 8

Date Meet Event Result Place Ratingi Difficultyi PR/SR Flags
2010-10-16 Willow Hills Reservoir Course 2800m 12:00 30th · 6th on team 112.5 +0.7% ★PR ★CR ★R SR CSR RSR
2010-09-04 Lagoon Valley Park 2414m 10:38.4 23rd · 7th on team 105.1 -2.4% ★PR ★CR R SR CSR RSR

Track & Field

TF speed rating

2012 TF 97.5

Elk Grove (CA) · Grade 9

Date Meet Event Result Place Ratingi Difficultyi PR/SR Flags
2012-05-05 Sactown Races 1500m 5:16 58th · 3rd on team 99.6 +0.1% ★PR SR RSR
2012-05-05 Sactown Races 3000m 11:17.5 18th · 1st on team 100.9 +0.1% ★PR SR RSR
2012-05-02 DVC Meet: Elk Grove vs Franklin 800m 2:33.4 6th · 3rd on team 97.0 -0.9%
2012-04-25 MTHS vs. Elk Grove 800m 2:32.05 4th · 3rd on team 98.4 +0.3% ★PR SR
2012-04-25 MTHS vs. Elk Grove 1600m 5:43.63 8th · 4th on team 98.1 +0.3%
2012-04-21 Halden Invitational 3200m 12:55.49 18th · 3rd on team 95.0 -0.2%
2012-04-21 Halden Invitational 1600m 5:40.54 36th · 4th on team 99.5 -0.2% RSR
2012-04-14 Depth Charge 3200m 12:40.82 5th · 1st on team 96.1 +0.6%
2012-04-13 Bronco Roundup Distance Carnival 800m 2:39.59 36th · 1st on team 93.2 -1.1%
2012-04-13 Bronco Roundup Distance Carnival 1600m 5:40.15 50th · 2nd on team 98.4 -1.1%
2012-03-21 DVC Meet: Davis vs. Elk Grove 3200m 12:32.96 6th · 2nd on team 96.2 -0.9% ★PR SR
2012-03-21 DVC Meet: Davis vs. Elk Grove 1600m 5:37.33 10th · 3rd on team 99.2 -0.9% ★PR SR RSR
2012-03-10 Port City Invitiational 3200m 12:36.97 16th · 3rd on team 96.6 -0.1% PR SR RSR
2012-03-10 Port City Invitiational 800m 2:35.61 21st · 3rd on team 96.2 -0.1% PR SR